Time;durP1;ratioP1;P1;durP2;ratioP2;P2;SDS_P1;SDS_P2;PMS_P1;PMS_P2;Temp;Humidity;BMP_temperature;BMP_pressure;BME280_temperature;BME280_humidity;BME280_pressure;Samples;Min_cycle;Max_cycle;Signal;HPM_P1;HPM_P2
2021/09/10 06:29:43;;;;;;;54.25;37.72;;;18.80;99.90;;;;;;6357152;22;19942;-96
2021/09/10 06:32:24;;;;;;;50.80;35.65;;;18.80;99.90;;;;;;6332523;22;20006;-92
2021/09/10 16:50:54;;;;;;;20.40;15.30;;;18.80;99.90;;;;;;6355094;22;20319;-83
2021/09/10 16:53:26;;;;;;;23.10;17.08;;;18.80;99.90;;;;;;6304030;22;20022;-83
2021/09/10 16:55:52;;;;;;;21.27;17.27;;;18.80;99.90;;;;;;6252397;22;20017;-84
2021/09/10 16:58:18;;;;;;;24.70;17.33;;;18.80;99.90;;;;;;6274202;22;20007;-84
2021/09/10 17:00:46;;;;;;;22.83;18.48;;;18.80;99.90;;;;;;6252273;22;20042;-84
2021/09/10 17:03:13;;;;;;;30.05;20.80;;;18.80;99.90;;;;;;6276747;22;20311;-84
2021/09/10 17:05:42;;;;;;;27.15;21.05;;;18.80;99.90;;;;;;6252630;22;20017;-83
2021/09/10 17:08:08;;;;;;;33.08;22.98;;;18.80;99.90;;;;;;6274042;22;20025;-84
2021/09/10 17:10:34;;;;;;;38.17;25.35;;;18.80;99.90;;;;;;6275906;22;20089;-84
2021/09/10 17:13:02;;;;;;;34.50;24.02;;;18.80;99.90;;;;;;6249764;22;20014;-85
2021/09/10 17:15:29;;;;;;;43.47;25.48;;;18.90;99.90;;;;;;6275675;22;20464;-85
2021/09/10 17:18:05;;;;;;;42.70;26.13;;;18.80;99.90;;;;;;6272867;22;20014;-86
2021/09/10 17:20:31;;;;;;;42.10;26.48;;;18.90;99.90;;;;;;6229075;22;20512;-85
2021/09/10 17:22:57;;;;;;;40.67;24.60;;;18.90;99.90;;;;;;6275631;22;20034;-85
2021/09/10 17:25:23;;;;;;;34.60;23.65;;;18.90;99.90;;;;;;6274315;22;20446;-85
2021/09/10 17:27:49;;;;;;;38.70;26.95;;;18.90;99.90;;;;;;6273949;22;20022;-85
2021/09/10 17:30:15;;;;;;;34.97;25.40;;;18.80;99.90;;;;;;6246585;22;20010;-84
2021/09/10 17:32:41;;;;;;;37.22;25.25;;;18.80;99.90;;;;;;6248341;22;20354;-85
2021/09/10 17:35:13;;;;;;;38.95;24.75;;;18.90;99.90;;;;;;6247594;22;20025;-85
2021/09/10 17:37:49;;;;;;;41.67;25.45;;;18.90;99.90;;;;;;6273715;22;20089;-85
2021/09/10 17:40:23;;;;;;;39.40;25.80;;;18.80;99.90;;;;;;6253523;22;20093;-85
2021/09/10 17:42:58;;;;;;;39.63;25.88;;;18.80;99.90;;;;;;6278859;22;20074;-85
2021/09/10 17:45:39;;;;;;;44.53;26.25;;;18.80;99.90;;;;;;6273461;22;20019;-86
2021/09/10 17:48:08;;;;;;;41.22;27.15;;;18.80;99.90;;;;;;6251033;22;20785;-85
2021/09/10 17:50:33;;;;;;;42.13;25.95;;;18.80;99.90;;;;;;6249467;22;20040;-85
2021/09/10 17:52:59;;;;;;;45.15;27.65;;;18.80;99.90;;;;;;6274300;22;20019;-85
2021/09/10 17:55:25;;;;;;;39.70;25.65;;;18.80;99.90;;;;;;6275637;22;20046;-86
2021/09/10 17:57:51;;;;;;;48.60;27.20;;;18.80;99.90;;;;;;6247419;22;20026;-85
2021/09/10 18:00:17;;;;;;;43.28;27.60;;;18.80;99.90;;;;;;6247009;22;20023;-85
2021/09/10 18:02:43;;;;;;;50.53;29.13;;;18.80;99.90;;;;;;6247300;22;20263;-86
2021/09/10 18:05:09;;;;;;;55.42;29.75;;;18.80;99.90;;;;;;6248940;22;20014;-86
2021/09/10 18:07:34;;;;;;;54.72;30.42;;;18.80;99.90;;;;;;6274684;22;20090;-86
2021/09/10 18:10:00;;;;;;;45.00;27.80;;;18.80;99.90;;;;;;6244112;22;20441;-86
2021/09/10 18:12:26;;;;;;;46.22;28.20;;;18.80;99.90;;;;;;6298367;22;20075;-85
2021/09/10 18:14:52;;;;;;;55.75;29.90;;;18.70;99.90;;;;;;6248375;22;20018;-85
2021/09/10 18:17:18;;;;;;;46.47;28.13;;;18.70;99.90;;;;;;6270138;22;20026;-85
2021/09/10 18:19:44;;;;;;;51.30;29.33;;;18.70;99.90;;;;;;6272350;22;20099;-86
2021/09/10 18:22:10;;;;;;;56.67;31.88;;;18.70;99.90;;;;;;6226995;22;20094;-87
2021/09/10 18:24:36;;;;;;;53.65;30.48;;;18.70;99.90;;;;;;6277726;22;20053;-87
2021/09/10 18:27:01;;;;;;;61.10;32.10;;;18.70;99.90;;;;;;6276646;22;20537;-87
2021/09/10 18:29:27;;;;;;;54.70;31.95;;;18.70;99.90;;;;;;6277690;22;20011;-87
2021/09/10 18:31:53;;;;;;;61.85;34.05;;;18.70;99.90;;;;;;6256315;22;20021;-87
2021/09/10 18:34:19;;;;;;;58.20;34.42;;;18.70;99.90;;;;;;6280030;22;20021;-87
2021/09/10 18:36:44;;;;;;;56.67;33.08;;;18.70;99.90;;;;;;6280804;22;20015;-87
2021/09/10 18:39:10;;;;;;;72.20;34.30;;;18.70;99.90;;;;;;6273938;22;20034;-86
2021/09/10 18:41:36;;;;;;;67.40;35.35;;;18.70;99.90;;;;;;6251463;22;20102;-86
2021/09/10 18:44:02;;;;;;;72.05;35.65;;;18.70;99.90;;;;;;6280828;22;20039;-86
2021/09/10 18:46:28;;;;;;;61.83;34.50;;;18.70;99.90;;;;;;6281643;22;20473;-86
2021/09/10 18:48:54;;;;;;;62.63;35.03;;;18.70;99.90;;;;;;6253132;22;20011;-86
2021/09/10 18:51:20;;;;;;;75.22;36.65;;;18.60;99.90;;;;;;6275335;22;20049;-86
2021/09/10 18:53:45;;;;;;;76.25;36.17;;;18.60;99.90;;;;;;6276259;22;20018;-87
2021/09/10 18:56:11;;;;;;;74.90;36.17;;;18.60;99.90;;;;;;6278405;22;20015;-87
2021/09/10 18:58:37;;;;;;;66.70;37.17;;;18.70;99.90;;;;;;6252543;22;20437;-87
2021/09/10 19:01:03;;;;;;;61.85;35.60;;;18.60;99.90;;;;;;6276988;22;20344;-87
2021/09/10 19:03:28;;;;;;;71.18;36.22;;;18.60;99.90;;;;;;6277292;22;20019;-86
2021/09/10 19:05:54;;;;;;;77.50;37.83;;;18.60;99.90;;;;;;6275936;22;20012;-86
2021/09/10 19:08:20;;;;;;;60.50;35.65;;;18.60;99.90;;;;;;6277994;22;20515;-87
2021/09/10 19:10:46;;;;;;;73.25;37.72;;;18.60;99.90;;;;;;6256686;22;20025;-87
2021/09/10 19:13:12;;;;;;;79.13;38.33;;;18.60;99.90;;;;;;6233901;22;20098;-87
2021/09/10 19:15:38;;;;;;;72.47;37.13;;;18.50;99.90;;;;;;6278697;22;20104;-87
2021/09/10 19:18:04;;;;;;;72.82;36.88;;;18.60;99.90;;;;;;6254230;22;20019;-87
2021/09/10 19:20:30;;;;;;;80.25;37.83;;;18.60;99.90;;;;;;6258597;22;20030;-86
2021/09/10 19:22:56;;;;;;;71.00;37.38;;;18.60;99.90;;;;;;6284656;22;20068;-86
2021/09/10 19:25:23;;;;;;;79.25;39.78;;;18.60;99.90;;;;;;6277366;22;20007;-87
2021/09/10 19:27:49;;;;;;;73.60;39.67;;;18.60;99.90;;;;;;6276157;22;20018;-87
2021/09/10 19:30:15;;;;;;;82.70;41.60;;;18.50;99.90;;;;;;6250533;22;20011;-87
2021/09/10 19:32:41;;;;;;;78.57;40.10;;;18.60;99.90;;;;;;6277276;22;20006;-87
2021/09/10 19:35:08;;;;;;;66.60;36.65;;;18.60;99.90;;;;;;6277147;22;20701;-87
2021/09/10 19:37:34;;;;;;;73.00;37.85;;;18.60;99.90;;;;;;6252110;22;20007;-87
2021/09/10 19:39:59;;;;;;;69.65;38.25;;;18.60;99.90;;;;;;6253180;22;20029;-87
2021/09/10 19:42:26;;;;;;;72.35;40.08;;;18.60;99.90;;;;;;6277834;22;20034;-87
2021/09/10 19:44:52;;;;;;;75.82;39.88;;;18.60;99.90;;;;;;6252784;22;20523;-85
2021/09/10 19:47:18;;;;;;;69.90;38.42;;;18.60;99.90;;;;;;6278972;22;20019;-84
2021/09/10 19:49:43;;;;;;;76.15;38.05;;;18.60;99.90;;;;;;6253721;22;20007;-84
2021/09/10 19:52:09;;;;;;;84.15;40.65;;;18.60;99.90;;;;;;6277331;22;20647;-85
2021/09/10 19:54:36;;;;;;;74.35;39.35;;;18.50;99.90;;;;;;6258152;22;20014;-84
2021/09/10 19:57:03;;;;;;;73.25;38.60;;;18.60;99.90;;;;;;6253373;22;20024;-85
2021/09/10 19:59:28;;;;;;;63.92;37.13;;;18.60;99.90;;;;;;6254375;22;20472;-85
2021/09/10 20:01:54;;;;;;;74.47;38.40;;;18.50;99.90;;;;;;6277851;22;20011;-84
2021/09/10 20:04:20;;;;;;;82.63;40.60;;;18.50;99.90;;;;;;6251593;22;20080;-84
2021/09/10 20:06:47;;;;;;;73.82;38.70;;;18.50;99.90;;;;;;6253374;22;20061;-84
2021/09/10 20:09:12;;;;;;;67.47;37.30;;;18.50;99.90;;;;;;6252540;22;20007;-84
2021/09/10 20:11:39;;;;;;;73.30;38.33;;;18.50;99.90;;;;;;6278752;22;20520;-84
2021/09/10 20:14:05;;;;;;;65.28;38.40;;;18.50;99.90;;;;;;6253679;22;20023;-84
2021/09/10 20:16:32;;;;;;;76.07;40.00;;;18.50;99.90;;;;;;6278456;22;20011;-84
2021/09/10 20:18:59;;;;;;;75.93;41.38;;;18.40;99.90;;;;;;6252175;22;20291;-84
2021/09/10 20:21:24;;;;;;;84.30;41.67;;;18.40;99.90;;;;;;6279344;22;20056;-83
2021/09/10 20:23:50;;;;;;;75.32;41.17;;;18.50;99.90;;;;;;6279361;22;20228;-85
2021/09/10 20:26:16;;;;;;;81.80;43.42;;;18.50;99.90;;;;;;6254127;22;20488;-85
2021/09/10 20:28:42;;;;;;;108.60;49.20;;;18.50;99.90;;;;;;6255873;22;20011;-85
2021/09/10 20:31:09;;;;;;;94.55;50.08;;;18.50;99.90;;;;;;6255706;22;20045;-85
2021/09/10 20:33:35;;;;;;;121.45;52.15;;;18.50;99.90;;;;;;6280397;22;20022;-85
2021/09/10 20:36:01;;;;;;;114.10;51.47;;;18.50;99.90;;;;;;6253796;22;20015;-85
2021/09/10 20:38:27;;;;;;;112.45;52.05;;;18.50;99.90;;;;;;6278050;22;20015;-84
2021/09/10 20:40:53;;;;;;;125.32;55.80;;;18.50;99.90;;;;;;6277347;22;20014;-85
2021/09/10 20:43:19;;;;;;;118.35;53.55;;;18.60;99.90;;;;;;6279620;22;20323;-84
2021/09/10 20:45:46;;;;;;;122.72;54.20;;;18.60;99.90;;;;;;6254671;22;20090;-86
2021/09/10 20:48:12;;;;;;;135.55;55.80;;;18.50;99.90;;;;;;6278505;22;20050;-85
2021/09/10 20:50:40;;;;;;;108.95;51.70;;;18.50;99.90;;;;;;6278303;22;20493;-85
2021/09/10 20:53:07;;;;;;;113.45;55.13;;;18.50;99.90;;;;;;6250924;22;20015;-85
2021/09/10 20:55:33;;;;;;;103.97;51.13;;;18.50;99.90;;;;;;6254004;22;20125;-85
2021/09/10 20:58:00;;;;;;;122.18;55.05;;;18.50;99.90;;;;;;6278929;22;20021;-84
2021/09/10 21:00:26;;;;;;;115.47;54.42;;;18.50;99.90;;;;;;6257776;22;20026;-84
2021/09/10 21:02:52;;;;;;;138.13;57.47;;;18.50;99.90;;;;;;6259092;22;20015;-85
2021/09/10 21:05:18;;;;;;;137.18;57.58;;;18.50;99.90;;;;;;6282710;22;20015;-85
2021/09/10 21:07:43;;;;;;;125.30;55.75;;;18.50;99.90;;;;;;6279628;22;20378;-85
2021/09/10 21:10:09;;;;;;;111.35;55.13;;;18.50;99.90;;;;;;6253380;22;20346;-85
2021/09/10 21:12:35;;;;;;;107.88;53.40;;;18.50;99.90;;;;;;6228723;22;20042;-84
2021/09/10 21:15:01;;;;;;;134.68;56.35;;;18.50;99.90;;;;;;6254292;22;20022;-84
2021/09/10 21:17:27;;;;;;;129.48;56.55;;;18.50;99.90;;;;;;6255599;22;20323;-84
2021/09/10 21:19:53;;;;;;;136.38;56.38;;;18.50;99.90;;;;;;6252405;22;20033;-85
2021/09/10 21:22:19;;;;;;;152.80;58.30;;;18.50;99.90;;;;;;6277683;22;20011;-84
2021/09/10 21:24:45;;;;;;;142.32;56.95;;;18.50;99.90;;;;;;6255960;22;20021;-85
2021/09/10 21:27:11;;;;;;;142.68;59.00;;;18.40;99.90;;;;;;6281056;22;20094;-83
2021/09/10 21:29:39;;;;;;;144.27;58.75;;;18.40;99.90;;;;;;6254174;22;20014;-84
2021/09/10 21:32:05;;;;;;;149.57;59.50;;;18.50;99.90;;;;;;6280967;22;20393;-84
2021/09/10 21:34:31;;;;;;;154.55;59.15;;;18.50;99.90;;;;;;6283161;22;20015;-84
2021/09/10 21:36:57;;;;;;;165.80;61.65;;;18.50;99.90;;;;;;6255614;22;20053;-84
2021/09/10 21:39:23;;;;;;;177.82;62.38;;;18.40;99.90;;;;;;6254595;22;20014;-85
2021/09/10 21:41:48;;;;;;;211.15;65.75;;;18.40;99.90;;;;;;6254208;22;20061;-84
2021/09/10 21:44:14;;;;;;;230.68;66.18;;;18.40;99.90;;;;;;6281645;22;20093;-83
2021/09/10 21:46:40;;;;;;;204.07;62.00;;;18.50;99.90;;;;;;6281469;22;20529;-83
2021/09/10 21:49:06;;;;;;;275.13;66.93;;;18.50;99.90;;;;;;6279345;22;20007;-84
2021/09/10 21:51:31;;;;;;;288.15;67.28;;;18.50;99.90;;;;;;6278801;22;20010;-87
2021/09/10 21:53:58;;;;;;;304.38;68.90;;;18.50;99.90;;;;;;6280990;22;20046;-87
2021/09/10 21:56:24;;;;;;;328.58;71.88;;;18.50;99.90;;;;;;6280894;22;20010;-87
2021/09/10 21:58:50;;;;;;;345.45;72.35;;;18.50;99.90;;;;;;6277590;22;20015;-87
2021/09/10 22:01:16;;;;;;;332.83;69.50;;;18.50;99.90;;;;;;6278098;22;20022;-87
2021/09/10 22:03:41;;;;;;;319.75;69.15;;;18.50;99.90;;;;;;6279743;22;20342;-86
2021/09/10 22:06:07;;;;;;;383.35;72.15;;;18.50;99.90;;;;;;6277925;22;20019;-86
2021/09/10 22:08:33;;;;;;;318.90;68.35;;;18.50;99.90;;;;;;6257382;22;20014;-86
2021/09/10 22:10:59;;;;;;;295.83;67.78;;;18.50;99.90;;;;;;6252891;22;20011;-87
2021/09/10 22:13:25;;;;;;;309.20;67.90;;;18.50;99.90;;;;;;6252962;22;20062;-88
2021/09/10 22:15:51;;;;;;;318.88;69.63;;;18.50;99.90;;;;;;6276697;22;20331;-87
2021/09/10 22:18:17;;;;;;;310.83;69.18;;;18.50;99.90;;;;;;6252731;22;20022;-87
2021/09/10 22:20:42;;;;;;;284.42;67.63;;;18.50;99.90;;;;;;6277978;22;20402;-87
2021/09/10 22:23:08;;;;;;;297.23;66.95;;;18.50;99.90;;;;;;6253941;22;20050;-87
2021/09/10 22:25:34;;;;;;;278.17;67.45;;;18.50;99.90;;;;;;6278842;22;20017;-87
2021/09/10 22:28:00;;;;;;;293.73;68.38;;;18.50;99.90;;;;;;6277949;22;20011;-87
2021/09/10 22:30:26;;;;;;;313.33;68.63;;;18.60;99.90;;;;;;6278596;22;20007;-87
2021/09/10 22:32:52;;;;;;;284.05;68.32;;;18.60;99.90;;;;;;6252870;22;20026;-87
2021/09/10 22:35:18;;;;;;;254.43;66.35;;;18.50;99.90;;;;;;6279207;22;20423;-86
2021/09/10 22:37:44;;;;;;;252.40;65.70;;;18.50;99.90;;;;;;6252224;22;20081;-87
2021/09/10 22:40:10;;;;;;;205.32;62.13;;;18.50;99.90;;;;;;6251020;22;20438;-87
2021/09/10 22:42:36;;;;;;;256.00;66.10;;;18.60;99.90;;;;;;6254183;22;20011;-87
2021/09/10 22:45:07;;;;;;;294.75;67.90;;;18.50;99.90;;;;;;6252334;22;20014;-86
2021/09/10 22:47:33;;;;;;;241.68;66.45;;;18.50;99.90;;;;;;6279229;22;20358;-87
2021/09/10 22:49:58;;;;;;;266.13;67.20;;;18.50;99.90;;;;;;6277957;22;20086;-87
2021/09/10 23:02:46;;;;;;;180.98;63.33;;;18.60;99.90;;;;;;6339681;22;20053;-93
2021/09/10 23:05:11;;;;;;;213.75;64.75;;;18.60;99.90;;;;;;6314962;22;20018;-94
2021/09/10 23:07:46;;;;;;;205.40;64.60;;;18.60;99.90;;;;;;6290286;22;20010;-93
2021/09/10 23:10:15;;;;;;;227.68;66.82;;;18.60;99.90;;;;;;6314687;22;20083;-93
2021/09/10 23:12:57;;;;;;;208.15;66.10;;;18.60;99.90;;;;;;6315736;22;20024;-94
2021/09/10 23:15:49;;;;;;;204.50;64.07;;;18.60;99.90;;;;;;6297826;22;20072;-93
